Time;durP1;ratioP1;P1;durP2;ratioP2;P2;SDS_P1;SDS_P2;PMS_P1;PMS_P2;Temp;Humidity;BMP_temperature;BMP_pressure;BME280_temperature;BME280_humidity;BME280_pressure;Samples;Min_cycle;Max_cycle;Signal;HPM_P1;HPM_P2
2023/09/24 00:02:27;;;;;;;0.80;0.80;;;18.30;70.10;17.40;97080.00;;;;5082250;28;20236;-82
2023/09/24 00:04:56;;;;;;;0.73;0.70;;;18.30;69.40;17.40;97084.00;;;;5075423;28;20216;-82
2023/09/24 00:07:25;;;;;;;0.87;0.60;;;18.40;70.10;17.40;97088.00;;;;5084293;28;20638;-82
2023/09/24 00:09:52;;;;;;;1.37;0.80;;;18.30;69.10;17.40;97089.00;;;;5066855;28;20197;-82
2023/09/24 00:12:19;;;;;;;0.67;0.67;;;18.30;69.80;17.40;97085.00;;;;5081013;28;20579;-82
2023/09/24 00:14:48;;;;;;;0.50;0.50;;;18.30;69.30;17.40;97089.00;;;;5072840;28;20604;-82
2023/09/24 00:17:16;;;;;;;0.67;0.67;;;18.30;69.40;17.40;97087.00;;;;5065119;28;20220;-82
2023/09/24 00:19:44;;;;;;;0.93;0.80;;;18.30;69.30;17.30;97085.00;;;;5067417;28;20197;-83
2023/09/24 00:22:12;;;;;;;0.60;0.60;;;18.30;69.40;17.40;97089.00;;;;5072781;28;20228;-82
2023/09/24 00:24:40;;;;;;;0.70;0.70;;;18.30;69.40;17.30;97096.00;;;;5072255;28;20235;-82
2023/09/24 00:27:08;;;;;;;0.70;0.70;;;18.30;69.30;17.30;97097.00;;;;5081908;28;20196;-82
2023/09/24 00:29:35;;;;;;;1.07;0.70;;;18.30;69.30;17.30;97104.00;;;;5079100;28;20734;-82
2023/09/24 00:32:04;;;;;;;1.23;0.90;;;18.30;69.20;17.30;97101.00;;;;5083792;28;20199;-82
2023/09/24 00:34:31;;;;;;;1.00;0.90;;;18.30;69.10;17.20;97101.00;;;;5087311;28;20232;-82
2023/09/24 00:36:58;;;;;;;1.00;0.57;;;18.20;68.90;17.20;97106.00;;;;5080423;28;20235;-82
2023/09/24 00:39:25;;;;;;;0.50;0.50;;;18.20;68.90;17.10;97112.00;;;;5074983;28;20203;-82
2023/09/24 00:41:55;;;;;;;0.57;0.53;;;18.10;68.70;17.10;97109.00;;;;5079441;28;20662;-81
2023/09/24 00:44:22;;;;;;;1.00;0.60;;;18.10;68.60;17.00;97111.00;;;;5080831;28;20619;-81
2023/09/24 00:46:49;;;;;;;0.70;0.70;;;18.10;68.60;17.00;97117.00;;;;5079084;28;20202;-82
2023/09/24 00:49:18;;;;;;;1.03;0.50;;;18.00;68.60;16.90;97113.00;;;;5069379;28;20227;-82
2023/09/24 00:51:45;;;;;;;0.73;0.70;;;18.00;69.40;16.90;97113.00;;;;5074015;28;20255;-81
2023/09/24 00:54:14;;;;;;;0.93;0.57;;;17.90;68.60;16.80;97114.00;;;;5076009;28;20252;-81
2023/09/24 00:56:42;;;;;;;1.57;0.80;;;17.90;68.70;16.80;97109.00;;;;5070240;28;20200;-82
2023/09/24 00:59:10;;;;;;;0.87;0.87;;;17.80;68.60;16.80;97116.00;;;;5082502;28;20583;-82
2023/09/24 01:01:38;;;;;;;1.07;0.53;;;17.80;68.60;16.70;97118.00;;;;5076324;28;20259;-81
2023/09/24 01:04:07;;;;;;;1.20;0.70;;;17.70;68.60;16.60;97106.00;;;;5076193;28;20193;-81
2023/09/24 01:06:36;;;;;;;0.90;0.90;;;17.70;68.50;16.50;97103.00;;;;5081333;28;20195;-81
2023/09/24 01:09:08;;;;;;;0.60;0.60;;;17.60;68.40;16.50;97100.00;;;;5081240;28;20196;-81
2023/09/24 01:11:38;;;;;;;1.80;0.50;;;17.60;68.40;16.40;97104.00;;;;5077093;28;20254;-81
2023/09/24 01:14:05;;;;;;;0.63;0.60;;;17.50;68.40;16.30;97112.00;;;;5081686;28;20215;-81
2023/09/24 01:16:33;;;;;;;0.80;0.80;;;17.50;68.60;16.30;97101.00;;;;5070681;28;20235;-82
2023/09/24 01:19:00;;;;;;;1.10;0.70;;;17.40;68.50;16.20;97108.00;;;;5085814;28;20665;-81
2023/09/24 01:21:28;;;;;;;1.07;0.80;;;17.30;68.50;16.20;97111.00;;;;5077652;28;20203;-81
2023/09/24 01:24:00;;;;;;;0.73;0.73;;;17.30;68.50;16.10;97111.00;;;;5067311;28;20280;-81
2023/09/24 01:26:28;;;;;;;0.87;0.70;;;17.30;68.50;16.10;97113.00;;;;5061797;28;20722;-81
2023/09/24 01:28:57;;;;;;;1.00;0.87;;;17.20;68.50;16.00;97121.00;;;;5079120;28;20201;-81
2023/09/24 01:31:26;;;;;;;1.10;0.83;;;17.20;68.50;15.90;97115.00;;;;5081582;28;20200;-81
2023/09/24 01:33:53;;;;;;;0.57;0.57;;;17.10;68.50;15.90;97122.00;;;;5074862;28;20287;-81
2023/09/24 01:36:21;;;;;;;1.00;1.00;;;17.10;68.70;15.80;97132.00;;;;5068689;28;20222;-81
2023/09/24 01:38:48;;;;;;;0.70;0.70;;;17.00;69.50;15.80;97135.00;;;;5069626;28;20231;-81
2023/09/24 01:41:16;;;;;;;0.70;0.70;;;16.90;68.90;15.70;97126.00;;;;5067348;28;20198;-81
2023/09/24 01:43:46;;;;;;;1.00;0.80;;;16.90;69.00;15.70;97130.00;;;;5082097;28;20393;-81
2023/09/24 01:46:14;;;;;;;0.53;0.50;;;16.80;69.00;15.70;97132.00;;;;5070043;28;20593;-82
2023/09/24 01:48:43;;;;;;;0.57;0.57;;;16.80;69.00;15.60;97127.00;;;;5082336;28;20727;-82
2023/09/24 01:51:11;;;;;;;0.93;0.73;;;16.80;69.00;15.60;97134.00;;;;5082698;28;20283;-83
2023/09/24 01:53:39;;;;;;;1.17;0.80;;;16.70;69.00;15.50;97137.00;;;;5085977;28;20203;-82
2023/09/24 01:56:07;;;;;;;1.00;0.70;;;16.70;69.00;15.50;97140.00;;;;5086640;28;20224;-82
2023/09/24 01:58:37;;;;;;;0.80;0.60;;;16.60;69.00;15.40;97142.00;;;;5076160;28;20709;-82
2023/09/24 02:01:06;;;;;;;0.80;0.80;;;16.60;69.00;15.40;97150.00;;;;5085094;28;20220;-82
2023/09/24 02:03:34;;;;;;;0.63;0.63;;;16.50;69.00;15.30;97159.00;;;;5084423;28;20197;-82
2023/09/24 02:06:02;;;;;;;0.70;0.70;;;16.50;69.10;15.30;97158.00;;;;5079226;28;20219;-82
2023/09/24 02:08:30;;;;;;;0.80;0.80;;;16.50;69.10;15.20;97156.00;;;;5087393;28;20236;-82
2023/09/24 02:10:57;;;;;;;0.93;0.90;;;16.40;69.10;15.20;97168.00;;;;5067811;28;20210;-82
2023/09/24 02:13:25;;;;;;;1.50;0.70;;;16.40;69.20;15.20;97167.00;;;;5080524;28;20403;-82
2023/09/24 02:15:53;;;;;;;1.03;0.80;;;16.30;69.10;15.10;97172.00;;;;5056335;28;20286;-82
2023/09/24 02:18:22;;;;;;;1.50;0.80;;;16.30;69.20;15.10;97176.00;;;;5081290;28;20212;-82
2023/09/24 02:20:52;;;;;;;1.27;0.80;;;16.20;69.20;15.00;97178.00;;;;5072958;28;20242;-82
2023/09/24 02:23:19;;;;;;;1.33;0.93;;;16.20;69.20;15.00;97177.00;;;;5080433;28;20200;-82
2023/09/24 02:25:46;;;;;;;1.10;0.77;;;16.20;69.30;14.90;97180.00;;;;5068406;28;20708;-81
2023/09/24 02:28:17;;;;;;;1.70;1.00;;;16.10;69.20;14.90;97183.00;;;;5085929;28;20196;-81
2023/09/24 02:30:45;;;;;;;1.27;1.17;;;16.10;69.40;14.90;97183.00;;;;5077052;28;20192;-81
2023/09/24 02:33:14;;;;;;;1.50;1.20;;;16.10;69.50;14.80;97194.00;;;;5078498;28;20256;-81
2023/09/24 02:35:41;;;;;;;1.37;0.80;;;16.00;69.70;14.80;97204.00;;;;5075798;28;20311;-81
2023/09/24 02:38:10;;;;;;;1.23;1.13;;;16.00;69.60;14.80;97207.00;;;;5080788;28;20307;-81
2023/09/24 02:40:38;;;;;;;1.17;1.07;;;15.90;69.50;14.70;97201.00;;;;5081932;28;20197;-82
2023/09/24 02:43:05;;;;;;;0.70;0.70;;;15.90;69.50;14.70;97203.00;;;;5079369;28;20203;-81
2023/09/24 02:45:33;;;;;;;0.90;0.90;;;15.90;69.60;14.70;97211.00;;;;5073951;28;20219;-81
2023/09/24 02:48:04;;;;;;;1.23;1.13;;;15.90;69.60;14.60;97209.00;;;;5071216;28;20206;-81
2023/09/24 02:50:32;;;;;;;1.23;0.80;;;15.80;69.50;14.60;97215.00;;;;5081297;28;20287;-81
2023/09/24 02:53:04;;;;;;;0.90;0.90;;;15.80;69.40;14.50;97214.00;;;;5070920;28;20192;-82
2023/09/24 02:55:32;;;;;;;1.47;1.13;;;15.80;69.40;14.50;97221.00;;;;5077122;28;20221;-82
2023/09/24 02:57:59;;;;;;;0.80;0.80;;;15.70;69.40;14.50;97227.00;;;;5072483;28;20201;-81
2023/09/24 03:00:34;;;;;;;1.37;0.77;;;15.70;70.20;14.40;97224.00;;;;5077870;28;20260;-82
2023/09/24 03:03:03;;;;;;;0.80;0.80;;;15.60;69.40;14.40;97226.00;;;;5093505;28;20246;-82
2023/09/24 03:05:33;;;;;;;1.07;0.97;;;15.60;69.40;14.30;97228.00;;;;5080472;28;20239;-81
2023/09/24 03:08:02;;;;;;;0.90;0.90;;;15.60;69.60;14.30;97227.00;;;;5079396;28;20652;-82
2023/09/24 03:10:31;;;;;;;1.33;1.23;;;15.50;69.70;14.30;97233.00;;;;5072307;28;20228;-81
2023/09/24 03:12:59;;;;;;;6.20;1.13;;;15.50;69.70;14.20;97223.00;;;;5081279;28;20271;-82
2023/09/24 03:15:27;;;;;;;0.50;0.50;;;15.50;69.70;14.20;97225.00;;;;5076074;28;20295;-81
2023/09/24 03:17:55;;;;;;;0.80;0.80;;;15.50;70.50;14.20;97230.00;;;;5085376;28;20215;-81
2023/09/24 03:20:23;;;;;;;0.93;0.90;;;15.40;69.60;14.10;97234.00;;;;5081311;28;20210;-81
2023/09/24 03:22:54;;;;;;;1.00;0.90;;;15.40;69.70;14.10;97241.00;;;;5065374;28;20568;-81
2023/09/24 03:25:24;;;;;;;1.10;1.00;;;15.30;69.60;14.10;97231.00;;;;5067893;28;20295;-81
2023/09/24 03:27:53;;;;;;;1.00;0.80;;;15.30;69.60;14.00;97230.00;;;;5067889;28;20260;-81
2023/09/24 03:30:22;;;;;;;0.80;0.80;;;15.30;69.70;14.00;97233.00;;;;5069551;28;20291;-82
2023/09/24 03:32:51;;;;;;;1.00;1.00;;;15.20;69.60;14.00;97239.00;;;;5070731;28;20264;-81
2023/09/24 03:35:24;;;;;;;1.20;0.80;;;15.20;69.70;13.90;97231.00;;;;5072811;28;20223;-81
2023/09/24 03:37:53;;;;;;;1.00;0.90;;;15.20;69.60;13.90;97239.00;;;;5074247;28;20645;-82
2023/09/24 03:40:24;;;;;;;0.90;0.90;;;15.20;69.70;13.90;97243.00;;;;5064727;28;20298;-81
2023/09/24 03:42:52;;;;;;;0.97;0.87;;;15.10;69.70;13.80;97243.00;;;;5078325;28;20258;-81
2023/09/24 03:45:22;;;;;;;0.87;0.87;;;15.10;69.70;13.80;97247.00;;;;5081020;28;20216;-81
2023/09/24 03:47:50;;;;;;;0.80;0.80;;;15.10;70.50;13.80;97247.00;;;;5065829;28;20205;-82
2023/09/24 03:50:20;;;;;;;0.80;0.80;;;15.00;69.70;13.70;97254.00;;;;5083444;28;20200;-81
2023/09/24 03:52:52;;;;;;;0.70;0.70;;;15.00;69.80;13.70;97255.00;;;;5075364;28;20204;-82
2023/09/24 03:55:20;;;;;;;0.87;0.87;;;15.00;69.80;13.70;97247.00;;;;5072438;28;20288;-82
2023/09/24 03:57:47;;;;;;;1.73;0.87;;;14.90;69.80;13.70;97252.00;;;;5080714;28;20196;-81
2023/09/24 04:00:18;;;;;;;1.03;0.80;;;14.90;69.80;13.60;97243.00;;;;5077553;28;20226;-81
2023/09/24 04:02:47;;;;;;;1.07;0.93;;;14.90;69.90;13.60;97257.00;;;;5062290;28;20565;-81
2023/09/24 04:05:17;;;;;;;1.00;0.87;;;14.80;69.90;13.60;97258.00;;;;5079450;28;20291;-81
2023/09/24 04:07:46;;;;;;;0.90;0.90;;;14.80;69.90;13.60;97248.00;;;;5077139;28;20230;-81
2023/09/24 04:10:15;;;;;;;1.10;1.00;;;14.80;69.90;13.50;97249.00;;;;5079705;28;20222;-81
2023/09/24 04:12:43;;;;;;;1.07;0.93;;;14.80;69.90;13.50;97249.00;;;;5069760;28;20200;-81
2023/09/24 04:15:12;;;;;;;1.00;0.90;;;14.70;69.90;13.50;97248.00;;;;5063353;28;20214;-82
2023/09/24 04:17:39;;;;;;;0.90;0.90;;;14.70;69.90;13.40;97244.00;;;;5076876;28;20613;-81
2023/09/24 04:20:14;;;;;;;0.70;0.70;;;14.70;69.90;13.40;97244.00;;;;5063897;28;20216;-81
2023/09/24 04:22:42;;;;;;;1.17;1.07;;;14.70;69.90;13.40;97240.00;;;;5075268;28;20204;-81
2023/09/24 04:25:09;;;;;;;0.87;0.87;;;14.70;69.90;13.40;97249.00;;;;5078664;28;20216;-81
2023/09/24 04:27:38;;;;;;;0.73;0.73;;;14.60;69.90;13.40;97256.00;;;;5075266;28;20206;-82
2023/09/24 04:30:13;;;;;;;3.60;1.47;;;14.60;69.90;13.30;97256.00;;;;5077814;28;20200;-81
2023/09/24 04:32:41;;;;;;;0.80;0.77;;;14.60;69.90;13.30;97259.00;;;;5057325;28;20233;-81
2023/09/24 04:35:10;;;;;;;3.13;1.10;;;14.60;69.90;13.20;97249.00;;;;5066823;28;20220;-81
2023/09/24 04:37:38;;;;;;;3.50;1.00;;;14.50;69.80;13.20;97262.00;;;;5068963;28;20211;-81
2023/09/24 04:40:10;;;;;;;0.67;0.67;;;14.50;69.80;13.20;97268.00;;;;5067013;28;20585;-81
2023/09/24 04:42:41;;;;;;;0.87;0.83;;;14.50;70.00;13.20;97268.00;;;;5069448;28;20196;-82
2023/09/24 04:45:10;;;;;;;1.40;0.80;;;14.50;70.10;13.20;97271.00;;;;5066945;28;20238;-81
2023/09/24 04:47:37;;;;;;;0.90;0.90;;;14.40;70.10;13.10;97274.00;;;;5069558;28;20203;-82
2023/09/24 04:50:06;;;;;;;1.60;1.30;;;14.40;70.20;13.10;97264.00;;;;5070394;28;20560;-81
2023/09/24 04:52:34;;;;;;;1.03;0.70;;;14.40;70.20;13.10;97270.00;;;;5062799;28;20277;-81
2023/09/24 04:55:02;;;;;;;0.80;0.80;;;14.40;70.30;13.10;97271.00;;;;5067569;28;20215;-81
2023/09/24 04:57:29;;;;;;;1.07;1.07;;;14.40;70.50;13.10;97272.00;;;;5063703;28;20203;-81
2023/09/24 04:59:57;;;;;;;0.90;0.90;;;14.40;70.60;13.10;97269.00;;;;5067354;28;20215;-82
2023/09/24 05:02:24;;;;;;;0.70;0.70;;;14.30;71.40;13.10;97271.00;;;;5075155;28;20199;-81
2023/09/24 05:04:54;;;;;;;1.23;0.90;;;14.30;70.70;13.10;97272.00;;;;5073558;28;20296;-81
2023/09/24 05:07:21;;;;;;;1.00;0.90;;;14.30;70.70;13.10;97271.00;;;;5071234;28;20728;-81
2023/09/24 05:09:48;;;;;;;1.63;0.80;;;14.30;70.70;13.10;97267.00;;;;5076797;28;20200;-81
2023/09/24 05:12:16;;;;;;;3.03;1.00;;;14.30;70.50;13.10;97279.00;;;;5074273;28;20198;-82
2023/09/24 05:14:43;;;;;;;2.13;1.10;;;14.30;70.50;13.10;97285.00;;;;5067261;28;20231;-82
2023/09/24 05:17:11;;;;;;;1.20;1.10;;;14.30;70.60;13.10;97283.00;;;;5067471;28;20210;-81
2023/09/24 05:19:40;;;;;;;1.00;1.00;;;14.30;70.70;13.00;97289.00;;;;5071914;28;20606;-82
2023/09/24 05:22:08;;;;;;;1.10;0.90;;;14.30;71.40;13.00;97287.00;;;;5068464;28;20288;-82
2023/09/24 05:24:36;;;;;;;1.83;1.40;;;14.30;70.70;13.00;97280.00;;;;5069949;28;20216;-81
2023/09/24 05:27:03;;;;;;;1.00;1.00;;;14.30;70.70;13.00;97283.00;;;;5074197;28;20195;-81
2023/09/24 05:29:31;;;;;;;1.60;1.00;;;14.20;70.60;13.00;97292.00;;;;5071199;28;20196;-81
2023/09/24 05:32:00;;;;;;;0.90;0.90;;;14.20;70.60;13.00;97290.00;;;;5071345;28;20192;-81
2023/09/24 05:34:29;;;;;;;1.00;0.80;;;14.20;70.80;13.00;97300.00;;;;5059498;28;20223;-81
2023/09/24 05:36:56;;;;;;;1.10;1.00;;;14.20;71.00;13.00;97301.00;;;;5070461;28;20193;-82
2023/09/24 05:39:23;;;;;;;0.80;0.80;;;14.20;71.00;13.00;97301.00;;;;5075016;28;20314;-81
2023/09/24 05:41:50;;;;;;;1.23;0.80;;;14.20;71.10;12.90;97307.00;;;;5067033;28;20196;-82
2023/09/24 05:44:18;;;;;;;0.87;0.87;;;14.20;71.10;13.00;97307.00;;;;5075903;28;20282;-81
2023/09/24 05:46:45;;;;;;;1.27;1.17;;;14.20;71.20;13.00;97311.00;;;;5074822;28;20196;-81
2023/09/24 05:49:12;;;;;;;0.93;0.93;;;14.20;71.20;13.00;97313.00;;;;5086672;28;20208;-81
2023/09/24 05:51:40;;;;;;;1.37;1.00;;;14.20;71.20;13.00;97323.00;;;;5075401;28;20200;-81
2023/09/24 05:54:10;;;;;;;0.80;0.80;;;14.20;71.50;13.00;97324.00;;;;5069327;28;20192;-82
2023/09/24 05:56:37;;;;;;;1.50;1.03;;;14.20;71.60;13.00;97329.00;;;;5076214;28;20258;-82
2023/09/24 05:59:05;;;;;;;1.30;1.20;;;14.20;71.90;13.00;97326.00;;;;5068204;28;20224;-82
2023/09/24 06:01:32;;;;;;;1.37;1.27;;;14.20;72.10;13.00;97322.00;;;;5072762;28;20204;-82
2023/09/24 06:03:59;;;;;;;1.67;1.33;;;14.20;72.30;13.10;97329.00;;;;5059708;28;20275;-83
2023/09/24 06:06:26;;;;;;;1.50;1.40;;;14.20;72.50;13.10;97324.00;;;;5074172;28;20319;-83
2023/09/24 06:08:55;;;;;;;1.13;1.10;;;14.20;72.70;13.10;97336.00;;;;5070290;28;20202;-82
2023/09/24 06:11:22;;;;;;;1.10;1.00;;;14.30;73.70;13.20;97335.00;;;;5077676;28;20192;-82
2023/09/24 06:13:49;;;;;;;1.10;1.10;;;14.30;73.80;13.20;97340.00;;;;5079471;28;20196;-82
2023/09/24 06:16:18;;;;;;;1.63;1.10;;;14.30;73.10;13.20;97346.00;;;;5068589;28;20712;-83
2023/09/24 06:18:45;;;;;;;1.43;0.97;;;14.40;73.20;13.30;97354.00;;;;5073134;28;20665;-83
2023/09/24 06:21:16;;;;;;;1.00;1.00;;;14.40;73.20;13.30;97352.00;;;;5071284;28;20219;-83
2023/09/24 06:23:43;;;;;;;2.00;1.30;;;14.40;73.40;13.30;97349.00;;;;5070074;28;20671;-83
2023/09/24 06:26:13;;;;;;;1.30;1.20;;;14.40;73.30;13.30;97351.00;;;;5075439;28;20284;-82
2023/09/24 06:28:40;;;;;;;1.07;0.93;;;14.50;73.50;13.40;97353.00;;;;5063658;28;20279;-82
2023/09/24 06:31:07;;;;;;;1.20;1.00;;;14.50;73.60;13.40;97360.00;;;;5066885;28;20279;-83
2023/09/24 06:33:35;;;;;;;1.40;1.30;;;14.50;73.70;13.40;97366.00;;;;5067774;28;20200;-83
2023/09/24 06:36:03;;;;;;;1.80;1.07;;;14.50;73.80;13.50;97362.00;;;;5074793;28;20212;-86
2023/09/24 06:38:32;;;;;;;0.93;0.90;;;14.60;74.10;13.50;97362.00;;;;5070142;28;20207;-85
2023/09/24 06:41:00;;;;;;;1.40;1.30;;;14.60;74.30;13.60;97365.00;;;;5067299;28;20216;-85
2023/09/24 06:43:29;;;;;;;1.57;1.47;;;14.70;74.40;13.60;97374.00;;;;5073643;28;20638;-85
2023/09/24 06:45:57;;;;;;;2.33;1.13;;;14.70;74.50;13.70;97378.00;;;;5078145;28;20224;-86
2023/09/24 06:48:25;;;;;;;1.27;1.17;;;14.80;74.50;13.80;97376.00;;;;5066444;28;20215;-85
2023/09/24 06:50:53;;;;;;;1.37;1.27;;;14.80;74.60;13.90;97384.00;;;;5073662;28;20671;-86
2023/09/24 06:53:21;;;;;;;1.43;1.20;;;14.90;74.80;13.90;97379.00;;;;5078355;28;20574;-86
2023/09/24 06:55:48;;;;;;;1.10;1.00;;;15.00;74.90;14.00;97380.00;;;;5072823;28;20221;-85
2023/09/24 06:58:15;;;;;;;1.83;1.30;;;15.00;74.90;14.10;97379.00;;;;5075510;28;20199;-85
2023/09/24 07:00:47;;;;;;;1.73;1.30;;;15.10;75.00;14.10;97386.00;;;;5070207;28;20315;-86
2023/09/24 07:03:14;;;;;;;1.30;1.17;;;15.20;75.10;14.20;97381.00;;;;5070439;28;20200;-85
2023/09/24 07:05:41;;;;;;;1.40;1.30;;;15.20;75.10;14.30;97388.00;;;;5073258;28;20216;-86
2023/09/24 07:08:09;;;;;;;1.33;1.27;;;15.30;75.20;14.40;97385.00;;;;5069085;28;20220;-84
2023/09/24 07:10:36;;;;;;;1.07;1.00;;;15.40;75.20;14.50;97387.00;;;;5081788;28;20295;-84
2023/09/24 07:13:04;;;;;;;1.47;1.37;;;15.50;75.30;14.50;97394.00;;;;5081488;28;20268;-82
2023/09/24 07:15:32;;;;;;;1.73;1.50;;;15.50;75.40;14.60;97391.00;;;;5073073;28;20672;-82
2023/09/24 07:18:01;;;;;;;1.40;1.30;;;15.60;75.50;14.70;97403.00;;;;5077294;28;20196;-82
2023/09/24 07:20:29;;;;;;;1.10;1.00;;;15.70;75.50;14.80;97396.00;;;;5067864;28;20221;-82
2023/09/24 07:22:56;;;;;;;1.83;1.20;;;15.70;75.40;14.80;97406.00;;;;5070378;28;20191;-83
2023/09/24 07:25:23;;;;;;;1.90;1.60;;;15.80;76.30;14.90;97402.00;;;;5076320;28;20315;-83
2023/09/24 07:27:50;;;;;;;2.13;1.60;;;15.90;75.70;15.00;97401.00;;;;5071622;28;20311;-82
2023/09/24 07:30:18;;;;;;;1.50;1.40;;;15.90;75.70;15.20;97409.00;;;;5072605;28;20208;-83
2023/09/24 07:32:47;;;;;;;1.50;1.40;;;16.00;75.80;15.20;97409.00;;;;5077415;28;20200;-85
2023/09/24 07:35:16;;;;;;;1.67;1.10;;;16.10;76.10;15.30;97408.00;;;;5073169;28;20227;-80
2023/09/24 07:37:43;;;;;;;2.20;1.50;;;16.20;76.20;15.50;97406.00;;;;5068893;28;20200;-84
2023/09/24 07:40:11;;;;;;;1.57;1.00;;;16.30;76.90;15.50;97410.00;;;;5069402;28;20220;-87
2023/09/24 07:42:38;;;;;;;2.57;1.40;;;16.40;76.20;15.70;97411.00;;;;5063930;28;20771;-86
2023/09/24 07:45:08;;;;;;;1.60;1.40;;;16.50;76.20;15.80;97411.00;;;;5073564;28;20219;-85
2023/09/24 07:47:35;;;;;;;1.83;1.60;;;16.60;76.10;15.90;97408.00;;;;5071844;28;20204;-85
2023/09/24 07:50:02;;;;;;;1.57;1.40;;;16.70;75.80;16.00;97414.00;;;;5070785;28;20207;-84
2023/09/24 07:52:31;;;;;;;2.13;1.40;;;16.80;75.30;16.10;97416.00;;;;5064387;28;20269;-84
2023/09/24 07:54:58;;;;;;;1.50;1.40;;;16.90;75.00;16.20;97415.00;;;;5065196;28;20278;-84
2023/09/24 07:57:26;;;;;;;1.70;1.43;;;17.10;75.30;16.40;97423.00;;;;5079686;28;20200;-84
2023/09/24 07:59:54;;;;;;;1.87;1.17;;;17.20;75.30;16.50;97423.00;;;;5061823;28;20254;-82
2023/09/24 08:02:22;;;;;;;2.00;1.63;;;17.30;75.30;16.60;97429.00;;;;5073460;28;20234;-87
2023/09/24 08:04:49;;;;;;;1.40;1.30;;;17.40;75.10;16.70;97431.00;;;;5073954;28;20223;-84
2023/09/24 08:07:16;;;;;;;1.60;1.50;;;17.50;75.10;16.90;97432.00;;;;5070226;28;20283;-85
2023/09/24 08:09:46;;;;;;;1.73;1.10;;;17.60;75.00;17.00;97435.00;;;;5076502;28;20197;-83
2023/09/24 08:12:13;;;;;;;2.07;1.10;;;17.70;74.70;17.10;97440.00;;;;5062658;28;20742;-84
2023/09/24 08:14:40;;;;;;;1.47;1.10;;;17.80;74.50;17.20;97444.00;;;;5069911;28;20215;-84
2023/09/24 08:17:08;;;;;;;0.83;0.80;;;18.00;74.40;17.30;97438.00;;;;5067209;28;20208;-84
2023/09/24 08:19:35;;;;;;;1.10;1.00;;;18.10;74.10;17.40;97444.00;;;;5067030;28;20287;-84
2023/09/24 08:22:02;;;;;;;1.63;1.10;;;18.20;73.90;17.50;97446.00;;;;5067220;28;20639;-83
2023/09/24 08:24:29;;;;;;;1.50;1.20;;;18.30;73.70;17.60;97445.00;;;;5071031;28;20223;-85
2023/09/24 08:26:58;;;;;;;2.40;0.90;;;18.40;73.40;17.70;97447.00;;;;5068842;28;20189;-83
2023/09/24 08:29:25;;;;;;;2.03;1.20;;;18.50;73.20;17.80;97451.00;;;;5059248;28;20220;-85
2023/09/24 08:31:53;;;;;;;1.80;1.00;;;18.60;73.10;17.90;97445.00;;;;5069120;28;20284;-83
2023/09/24 08:34:20;;;;;;;1.30;0.90;;;18.70;73.30;18.00;97441.00;;;;5077420;28;20279;-83
2023/09/24 08:36:47;;;;;;;1.37;1.10;;;18.80;71.90;18.10;97444.00;;;;5074919;28;20197;-83
2023/09/24 08:39:16;;;;;;;1.30;0.97;;;18.80;71.60;18.10;97446.00;;;;5065118;28;20200;-83
2023/09/24 08:41:45;;;;;;;1.10;0.90;;;18.90;71.70;18.20;97446.00;;;;5065363;28;20301;-83
2023/09/24 08:44:17;;;;;;;1.03;0.93;;;19.00;71.70;18.30;97448.00;;;;5088505;28;20718;-83
2023/09/24 08:46:49;;;;;;;1.40;0.90;;;19.10;71.40;18.40;97443.00;;;;5070069;28;20277;-83
2023/09/24 08:49:18;;;;;;;1.53;1.00;;;19.20;71.00;18.50;97446.00;;;;5076409;28;20223;-83
2023/09/24 08:51:47;;;;;;;1.20;0.93;;;19.30;70.60;18.60;97448.00;;;;5070731;28;20679;-82
2023/09/24 08:54:15;;;;;;;1.20;0.90;;;19.40;70.50;18.70;97452.00;;;;5070631;28;20258;-83
2023/09/24 08:56:43;;;;;;;1.17;1.00;;;19.50;70.50;18.80;97447.00;;;;5074076;28;20202;-84
2023/09/24 08:59:10;;;;;;;1.93;1.00;;;19.50;70.30;18.90;97447.00;;;;5069691;28;20200;-82
2023/09/24 09:01:39;;;;;;;1.30;1.20;;;19.60;69.80;19.00;97449.00;;;;5071925;28;20252;-83
2023/09/24 09:04:06;;;;;;;1.67;0.90;;;19.70;69.10;19.10;97452.00;;;;5065598;28;20197;-83
2023/09/24 09:06:36;;;;;;;1.97;0.90;;;19.80;69.00;19.10;97455.00;;;;5073669;28;20206;-83
2023/09/24 09:09:04;;;;;;;1.53;0.97;;;19.80;68.80;19.20;97459.00;;;;5067693;28;20663;-83
2023/09/24 09:11:41;;;;;;;1.40;0.93;;;19.90;69.40;19.20;97459.00;;;;5071817;28;20203;-83
2023/09/24 09:14:10;;;;;;;1.87;1.00;;;20.00;68.30;19.20;97450.00;;;;5065491;28;20204;-82
2023/09/24 09:16:57;;;;;;;0.77;0.70;;;20.00;68.10;19.30;97449.00;;;;5067606;28;20209;-83
2023/09/24 09:19:25;;;;;;;0.70;0.70;;;20.10;67.60;19.40;97453.00;;;;5065413;28;20246;-83
2023/09/24 09:21:53;;;;;;;1.47;0.90;;;20.20;68.20;19.40;97451.00;;;;5074697;28;20223;-83
2023/09/24 09:24:24;;;;;;;1.80;0.80;;;20.20;67.90;19.50;97444.00;;;;5067949;28;20576;-83
2023/09/24 09:26:55;;;;;;;1.37;0.80;;;20.30;68.20;19.60;97432.00;;;;5072166;28;20242;-83
2023/09/24 09:29:24;;;;;;;1.13;0.87;;;20.40;67.70;19.70;97450.00;;;;5068507;28;20209;-83
2023/09/24 09:31:52;;;;;;;1.43;0.80;;;20.50;67.70;19.80;97444.00;;;;5072750;28;20593;-83
2023/09/24 09:34:20;;;;;;;1.50;0.97;;;20.50;67.60;19.90;97442.00;;;;5074704;28;20195;-83
2023/09/24 09:36:49;;;;;;;2.90;0.93;;;20.60;67.00;20.00;97443.00;;;;5073904;28;20207;-82
2023/09/24 09:39:16;;;;;;;2.87;1.10;;;20.70;66.10;20.10;97437.00;;;;5069671;28;20207;-84
2023/09/24 09:41:45;;;;;;;1.30;0.90;;;20.80;65.90;20.10;97437.00;;;;5077111;28;20282;-82
2023/09/24 09:44:23;;;;;;;1.40;0.90;;;20.90;65.50;20.20;97446.00;;;;5069196;28;20235;-85
2023/09/24 09:46:53;;;;;;;1.47;0.90;;;21.00;66.00;20.40;97434.00;;;;5071621;28;20199;-88
2023/09/24 09:49:26;;;;;;;1.23;1.00;;;21.00;65.40;20.40;97437.00;;;;5083188;28;20193;-84
2023/09/24 09:52:00;;;;;;;0.93;0.70;;;21.10;65.20;20.50;97435.00;;;;5068164;28;20241;-83
2023/09/24 09:54:35;;;;;;;2.43;0.90;;;21.20;64.40;20.60;97433.00;;;;5069534;28;20738;-82
2023/09/24 09:57:05;;;;;;;3.07;1.00;;;21.30;64.10;20.70;97438.00;;;;5067036;28;20207;-83
2023/09/24 09:59:35;;;;;;;0.80;0.73;;;21.40;63.70;20.70;97432.00;;;;5076291;28;21422;-83
2023/09/24 10:02:04;;;;;;;1.37;0.80;;;21.40;62.60;20.80;97439.00;;;;5069809;28;20243;-83
2023/09/24 10:04:34;;;;;;;1.53;0.70;;;21.50;62.40;20.80;97438.00;;;;5075069;28;20223;-83
2023/09/24 10:07:03;;;;;;;0.90;0.80;;;21.60;62.30;20.90;97434.00;;;;5070176;28;20215;-83
2023/09/24 10:09:37;;;;;;;1.10;0.73;;;21.60;62.90;21.00;97437.00;;;;5070940;28;20211;-83
2023/09/24 10:12:08;;;;;;;1.77;1.00;;;21.70;62.30;21.10;97437.00;;;;5073558;28;20196;-82
2023/09/24 10:14:37;;;;;;;1.10;0.73;;;21.80;62.90;21.10;97438.00;;;;5072386;28;20221;-83
2023/09/24 10:17:29;;;;;;;1.30;0.90;;;21.80;62.50;21.20;97439.00;;;;5072598;28;20291;-84
2023/09/24 10:20:06;;;;;;;1.00;0.80;;;21.90;60.90;21.30;97437.00;;;;5069251;28;20660;-83
2023/09/24 10:22:39;;;;;;;1.83;0.87;;;22.00;62.10;21.40;97428.00;;;;5074669;28;20195;-82
2023/09/24 10:25:34;;;;;;;1.03;0.80;;;22.10;61.70;21.50;97429.00;;;;5082414;28;20248;-82
2023/09/24 10:28:05;;;;;;;0.80;0.80;;;22.10;59.80;21.60;97430.00;;;;5066281;28;20577;-82
2023/09/24 10:31:03;;;;;;;1.67;0.77;;;22.20;60.50;21.70;97434.00;;;;5071753;28;20609;-82
2023/09/24 10:33:55;;;;;;;0.80;0.60;;;22.30;59.60;21.80;97428.00;;;;5071394;28;20264;-82
2023/09/24 10:36:30;;;;;;;0.50;0.50;;;22.40;60.00;21.90;97437.00;;;;5065909;28;20672;-83
2023/09/24 10:39:08;;;;;;;0.93;0.70;;;22.50;61.30;22.00;97432.00;;;;5077517;28;20205;-84
2023/09/24 10:41:37;;;;;;;1.00;0.83;;;22.60;60.70;22.10;97426.00;;;;5072263;28;20599;-82
2023/09/24 10:44:27;;;;;;;3.00;0.67;;;22.60;60.70;22.10;97427.00;;;;5071082;28;20200;-82
2023/09/24 10:46:55;;;;;;;1.27;0.70;;;22.70;58.70;22.10;97426.00;;;;5076540;28;20211;-83
2023/09/24 10:49:24;;;;;;;0.90;0.70;;;22.70;60.00;22.10;97418.00;;;;5075390;28;20281;-82
2023/09/24 10:52:02;;;;;;;1.50;0.87;;;22.70;58.30;22.10;97427.00;;;;5070618;28;20243;-82
2023/09/24 10:54:34;;;;;;;0.77;0.70;;;22.70;57.60;22.10;97426.00;;;;5072274;28;20298;-82
2023/09/24 10:57:01;;;;;;;1.60;0.80;;;22.70;58.10;22.00;97428.00;;;;5073875;28;20192;-83
2023/09/24 10:59:36;;;;;;;0.70;0.67;;;22.70;58.40;22.00;97423.00;;;;5078819;28;20222;-82
2023/09/24 11:02:16;;;;;;;0.70;0.60;;;22.70;58.50;22.00;97427.00;;;;5066655;28;20232;-83
2023/09/24 11:04:45;;;;;;;1.33;0.90;;;22.70;58.50;22.00;97424.00;;;;5068537;28;20303;-82